Data for 06/05/2013

Time Sea-Level Adjusted Pressure Absolute Pressure Temperature Relative Humidity Dew Point   
(mb) (inHg) (mb) (inHg) (C) (F) (%) (C) (F)
00:05 1024 30.24 853 25.19 5.8 42.5 79 2.4 36.3
00:10 1024 30.24 853 25.19 5.8 42.4 79 2.4 36.4
00:15 1024 30.24 853 25.19 5.8 42.5 79 2.5 36.4
00:20 1024 30.24 853 25.19 5.8 42.4 79 2.5 36.4
00:25 1024 30.24 853 25.19 5.7 42.3 80 2.5 36.5
00:30 1024 30.24 853 25.19 5.5 41.9 81 2.4 36.4
00:35 1024 30.24 853 25.19 5.3 41.6 81 2.4 36.3
00:40 1024 30.24 853 25.19 5.3 41.5 82 2.4 36.3
00:45 1024 30.24 853 25.19 5.2 41.4 82 2.4 36.4
00:50 1024 30.24 853 25.19 5.2 41.4 82 2.3 36.2
00:55 1024 30.24 853 25.19 5.2 41.3 82 2.4 36.3
01:00 1024 30.24 853 25.19 5.1 41.2 82 2.3 36.2
01:05 1024 30.24 853 25.19 4.8 40.7 83 2.1 35.8
01:10 1024 30.24 853 25.19 4.6 40.3 83 1.9 35.5
01:15 1024 30.24 853 25.19 4.6 40.3 82 1.8 35.3
01:20 1024 30.24 853 25.19 4.6 40.2 83 1.9 35.5
01:25 1024 30.24 853 25.19 4.5 40.1 83 1.9 35.4
01:30 1024 30.24 853 25.19 4.4 39.9 84 2 35.6
01:35 1024 30.24 853 25.19 4.3 39.7 85 2 35.6
01:40 1024 30.24 853 25.19 4.4 39.9 84 2 35.6
01:45 1024 30.24 853 25.19 4.4 39.9 84 1.9 35.4
01:50 1024 30.24 853 25.19 4.3 39.8 84 1.9 35.4
01:55 1024 30.24 853 25.19 4.2 39.6 84 1.8 35.3
02:00 1024 30.24 853 25.19 4.2 39.5 85 1.8 35.2
02:05 1024 30.24 853 25.19 4.1 39.5 84 1.7 35.1
02:10 1024 30.24 853 25.19 4.2 39.5 84 1.7 35
02:15 1023 30.21 853 25.19 4.1 39.4 84 1.6 34.9
02:20 1023 30.21 853 25.19 4.1 39.4 84 1.6 34.8
02:25 1023 30.21 853 25.19 4.1 39.3 84 1.6 34.8
02:30 1023 30.21 853 25.19 4 39.1 84 1.5 34.6
02:35 1023 30.21 853 25.19 3.9 39 84 1.4 34.6
02:40 1023 30.21 853 25.19 3.8 38.9 84 1.4 34.5
02:45 1023 30.21 853 25.19 3.8 38.9 83 1.3 34.3
02:50 1023 30.21 853 25.19 3.9 38.9 82 1.1 34
02:55 1023 30.21 853 25.19 4 39.1 83 1.3 34.3
03:00 1023 30.21 853 25.19 3.9 38.9 82 1.1 34
03:05 1023 30.21 853 25.19 4 39.1 82 1.2 34.1
03:10 1023 30.21 853 25.19 3.9 39 82 1.1 34.1
03:15 1023 30.21 853 25.19 3.8 38.9 82 1.1 34
03:20 1023 30.21 853 25.19 3.7 38.7 83 1.1 34
03:25 1023 30.21 853 25.19 3.6 38.5 83 1 33.7
03:30 1023 30.21 853 25.19 3.5 38.3 83 0.9 33.6
03:35 1023 30.21 853 25.19 3.6 38.5 82 0.8 33.5
03:40 1023 30.21 853 25.19 3.7 38.6 82 0.8 33.5
03:45 1023 30.21 853 25.19 3.6 38.4 82 0.7 33.3
03:50 1023 30.21 853 25.19 3.5 38.3 82 0.6 33.1
03:55 1023 30.21 853 25.19 3.5 38.2 82 0.6 33.1
04:00 1023 30.21 853 25.19 3.6 38.6 81 0.6 33.1
04:05 1023 30.21 853 25.19 3.6 38.6 80 0.6 33
04:10 1023 30.21 853 25.19 3.5 38.3 81 0.5 32.8
04:15 1023 30.21 853 25.19 3.4 38.1 80 0.2 32.4
04:20 1023 30.21 853 25.19 3.4 38.2 79 0.2 32.3
04:25 1024 30.24 853 25.19 3.6 38.4 79 0.2 32.4
04:30 1024 30.24 853 25.19 3.6 38.4 79 0.3 32.5
04:35 1024 30.24 853 25.19 3.5 38.3 79 0.2 32.4
04:40 1023 30.21 853 25.19 3.6 38.5 79 0.2 32.4
04:45 1024 30.24 853 25.19 3.6 38.5 80 0.4 32.7
04:50 1024 30.24 853 25.19 3.8 38.8 78 0.2 32.4
04:55 1024 30.24 853 25.19 3.6 38.5 79 0.3 32.5
05:00 1024 30.24 853 25.19 3.8 38.8 78 0.3 32.5
05:05 1024 30.24 853 25.19 3.9 39 77 0.2 32.4
05:10 1024 30.24 853 25.19 4 39.2 76 0.2 32.3
05:15 1024 30.24 853 25.19 4.2 39.6 75 0.1 32.2
05:20 1024 30.24 853 25.19 4.3 39.7 74 0.1 32.1
05:25 1024 30.24 853 25.19 4 39.2 75 0 32
05:30 1024 30.24 853 25.19 4.2 39.6 74 -0 31.9
05:35 1024 30.24 853 25.19 4.4 39.9 73 -0 31.9
05:40 1024 30.24 853 25.19 4.4 40 73 -0.1 31.9
05:45 1024 30.24 853 25.19 4.5 40.2 73 0 32.1
05:50 1024 30.24 853 25.19 4.8 40.6 72 0.2 32.3
05:55 1024 30.24 853 25.19 5 41 71 0.1 32.2
06:00 1024 30.24 853 25.19 5.1 41.2 70 0 32.1
06:05 1024 30.24 853 25.19 5.1 41.2 70 0.1 32.2
06:10 1024 30.24 853 25.19 5.4 41.7 68 0 32
06:15 1024 30.24 853 25.19 5.6 42.1 69 0.3 32.6
06:20 1024 30.24 853 25.19 6.1 42.9 67 0.4 32.8
06:25 1024 30.24 853 25.19 6.4 43.6 67 0.7 33.3
06:30 1024 30.24 853 25.19 6.8 44.2 66 0.9 33.6
06:35 1024 30.24 853 25.19 6.9 44.5 66 0.9 33.7
06:40 1024 30.24 853 25.19 7.2 44.9 65 1.1 34
06:45 1024 30.24 853 25.19 7.9 46.2 62 1 33.9
06:50 1024 30.24 853 25.19 8.5 47.3 62 1.7 35
06:55 1024 30.24 853 25.19 8.8 47.8 60 1.4 34.5
07:00 1023 30.21 853 25.19 8.9 48.1 59 1.3 34.3
07:05 1023 30.21 853 25.19 8.7 47.6 61 1.7 35.1
07:10 1023 30.21 853 25.19 9.1 48.4 56 0.9 33.6
07:15 1023 30.21 853 25.19 9.3 48.8 54 0.5 33
07:20 1023 30.21 853 25.19 9.8 49.7 52 0.5 33
07:25 1023 30.21 853 25.19 10.1 50.1 51 0.5 32.9
07:30 1023 30.21 852 25.16 10.4 50.7 51 0.6 33.1
07:35 1023 30.21 852 25.16 10.3 50.6 49 0.2 32.4
07:40 1023 30.21 852 25.16 10.2 50.4 51 0.5 32.9
07:45 1023 30.21 852 25.16 10.5 50.9 50 0.5 32.8
07:50 1023 30.21 852 25.16 11.2 52.1 47 0.3 32.6
07:55 1023 30.21 852 25.16 10.7 51.3 48 0.2 32.4
08:00 1023 30.21 852 25.16 10.4 50.7 49 0.1 32.2
08:05 1023 30.21 852 25.16 10.6 51.1 47 -0.2 31.7
08:10 1023 30.21 852 25.16 10.8 51.5 47 -0.1 31.8
08:15 1023 30.21 852 25.16 10.5 50.9 49 0.2 32.4
08:20 1023 30.21 852 25.16 10.6 51.1 48 -0 32
08:25 1023 30.21 852 25.16 11.5 52.7 45 0.1 32.1
08:30 1023 30.21 852 25.16 11.5 52.6 46 0.3 32.5
08:35 1023 30.21 852 25.16 11.5 52.7 48 0.8 33.5
08:40 1023 30.21 852 25.16 11.6 52.9 45 0.2 32.4
08:45 1023 30.21 852 25.16 12.1 53.8 46 0.8 33.5
08:50 1023 30.21 852 25.16 12.1 53.7 47 1 33.8
08:55 1023 30.21 852 25.16 12.9 55.2 43 0.6 33.1
09:00 1023 30.21 852 25.16 13.2 55.8 44 1.4 34.5
09:05 1023 30.21 852 25.16 13.4 56 43 1 33.8
09:10 1023 30.21 852 25.16 14 57.2 42 1.4 34.5
09:15 1023 30.21 852 25.16 14.3 57.7 38 0.2 32.4
09:20 1023 30.21 852 25.16 15.6 60.1 35 0.2 32.4
09:25 1023 30.21 852 25.16 15.9 60.6 35 0.4 32.8
09:30 1023 30.21 852 25.16 15.7 60.3 34 -0.1 31.9
09:35 1023 30.21 852 25.16 15.1 59.3 33 -0.8 30.5
09:40 1023 30.21 852 25.16 15.2 59.4 32 -1.1 30
09:45 1023 30.21 852 25.16 15 59 34 -0.7 30.8
09:50 1023 30.21 852 25.16 14.8 58.6 34 -0.7 30.8
09:55 1022 30.18 852 25.16 15.9 60.5 30 -1.4 29.5
10:00 1022 30.18 852 25.16 16.5 61.7 30 -1.2 29.9
10:05 1022 30.18 852 25.16 16.5 61.7 29 -1.5 29.4
10:10 1022 30.18 852 25.16 16.6 61.9 30 -0.7 30.7
10:15 1022 30.18 852 25.16 16.7 62.1 31 -0.6 31
10:20 1022 30.18 852 25.16 16.8 62.3 30 -0.8 30.6
10:25 1022 30.18 852 25.16 16.6 61.8 29 -1.3 29.6
10:30 1022 30.18 852 25.16 17.2 63 28 -1.1 30
10:35 1022 30.18 851 25.13 17.8 64.1 29 -0.1 31.8
10:40 1022 30.18 852 25.16 18.1 64.5 28 -0.7 30.7
10:45 1022 30.18 851 25.13 17.4 63.4 28 -1.4 29.5
10:50 1022 30.18 851 25.13 16.5 61.8 28 -2 28.4
10:55 1022 30.18 851 25.13 17.4 63.3 30 -0.4 31.3
11:00 1022 30.18 851 25.13 17.5 63.4 27 -1.8 28.8
11:05 1022 30.18 851 25.13 18.2 64.8 26 -1.6 29.2
11:10 1022 30.18 851 25.13 16.9 62.4 27 -2 28.3
11:15 1022 30.18 851 25.13 17.7 63.9 25 -2.3 27.8
11:20 1022 30.18 851 25.13 18.2 64.8 26 -1.3 29.6
11:25 1022 30.18 851 25.13 17 62.5 26 -2.6 27.3
11:30 1022 30.18 851 25.13 17.3 63.1 25 -2.9 26.8
11:35 1022 30.18 851 25.13 17.6 63.7 24 -3.2 26.3
11:40 1022 30.18 851 25.13 18.2 64.8 21 -4.7 23.6
11:45 1022 30.18 851 25.13 18.7 65.6 23 -2.9 26.8
11:50 1022 30.18 851 25.13 18.8 65.8 22 -3.1 26.4
11:55 1022 30.18 851 25.13 18.9 66 21 -3.6 25.6
12:00 1022 30.18 851 25.13 18.8 65.9 22 -3.2 26.3
12:05 1022 30.18 851 25.13 18.9 66 25 -1.7 29
12:10 1022 30.18 851 25.13 19 66.2 24 -1.7 28.9
12:15 1022 30.18 851 25.13 19.5 67.1 22 -2.8 26.9
12:20 1022 30.18 851 25.13 19.6 67.3 23 -1.7 29
12:25 1022 30.18 851 25.13 19.8 67.7 24 -1.4 29.4
12:30 1022 30.18 851 25.13 19.5 67.1 24 -1.3 29.6
12:35 1022 30.18 851 25.13 19.8 67.7 23 -2 28.3
12:40 1022 30.18 851 25.13 19.1 66.4 25 -1.5 29.3
12:45 1021 30.15 851 25.13 18.7 65.6 26 -1.1 30
12:50 1021 30.15 851 25.13 18.1 64.5 25 -1.9 28.6
12:55 1021 30.15 851 25.13 19.4 66.8 23 -2 28.4
13:00 1021 30.15 851 25.13 18.5 65.3 26 -1.3 29.6
13:05 1021 30.15 850 25.1 18.4 65.1 27 -0.9 30.4
13:10 1021 30.15 850 25.1 19.6 67.3 24 -1.3 29.7
13:15 1021 30.15 850 25.1 20 68 26 0.1 32.2
13:20 1021 30.15 850 25.1 20.2 68.4 25 -0.1 31.9
13:25 1021 30.15 850 25.1 19.4 66.9 26 -0.6 30.9
13:30 1021 30.15 850 25.1 19.9 67.9 24 -0.9 30.4
13:35 1021 30.15 850 25.1 19.3 66.8 25 -0.9 30.3
13:40 1021 30.15 850 25.1 19.2 66.6 26 -0.5 31.1
13:45 1021 30.15 850 25.1 18.5 65.4 26 -1.2 29.8
13:50 1021 30.15 850 25.1 18.7 65.6 26 -1 30.2
13:55 1021 30.15 850 25.1 19.4 66.9 26 -0.3 31.5
14:00 1021 30.15 850 25.1 20.2 68.4 24 -0.8 30.6
14:05 1021 30.15 850 25.1 20.4 68.7 25 0.1 32.1
14:10 1021 30.15 850 25.1 19.2 66.6 26 -0.7 30.7
14:15 1021 30.15 850 25.1 20.1 68.2 25 -0.4 31.3
14:20 1021 30.15 850 25.1 20.3 68.6 24 -0.8 30.6
14:25 1021 30.15 850 25.1 21.1 70 25 0.3 32.5
14:30 1021 30.15 850 25.1 21.2 70.1 24 0.2 32.4
14:35 1021 30.15 850 25.1 21 69.8 26 0.7 33.3
14:40 1021 30.15 850 25.1 21.1 70 24 -0.1 31.8
14:45 1020 30.12 850 25.1 21.7 71.1 24 0.2 32.4
14:50 1020 30.12 850 25.1 21.5 70.6 24 0.5 32.9
14:55 1020 30.12 850 25.1 20.9 69.7 24 -0 32
15:00 1020 30.12 850 25.1 20.7 69.2 25 0.4 32.7
15:05 1020 30.12 849 25.07 21 69.8 26 0.7 33.2
15:10 1020 30.12 849 25.07 21.4 70.5 24 0.2 32.3
15:15 1020 30.12 849 25.07 21.9 71.4 23 0.2 32.4
15:20 1020 30.12 849 25.07 22.1 71.8 24 0.8 33.4
15:25 1020 30.12 849 25.07 22 71.6 23 0.1 32.1
15:30 1020 30.12 849 25.07 21.6 70.8 24 0.4 32.7
15:35 1020 30.12 849 25.07 21.2 70.1 24 0 32
15:40 1020 30.12 849 25.07 22.4 72.3 22 -0.2 31.7
15:45 1020 30.12 849 25.07 21.6 70.8 26 1.3 34.3
15:50 1020 30.12 849 25.07 21.2 70.1 25 0.4 32.7
15:55 1020 30.12 849 25.07 20.9 69.7 25 0.5 32.8
16:00 1020 30.12 849 25.07 21.1 69.9 24 0.2 32.3
16:05 1020 30.12 849 25.07 21.3 70.3 24 -0.1 31.9
16:10 1020 30.12 849 25.07 21.8 71.2 23 -0.2 31.7
16:15 1020 30.12 849 25.07 21.8 71.2 22 -0.9 30.4
16:20 1020 30.12 849 25.07 21.9 71.5 24 0.4 32.7
16:25 1020 30.12 849 25.07 21 69.8 24 -0.2 31.7
16:30 1020 30.12 849 25.07 21 69.7 24 -0.4 31.3
16:35 1020 30.12 849 25.07 20.6 69 25 0.2 32.3
16:40 1019 30.09 849 25.07 21 69.9 25 0.3 32.6
16:45 1019 30.09 849 25.07 20.8 69.5 25 0.2 32.4
16:50 1019 30.09 849 25.07 20.5 68.8 25 0.2 32.3
16:55 1019 30.09 849 25.07 19.8 67.7 26 -0.1 31.9
17:00 1019 30.09 849 25.07 19.9 67.8 25 -0.3 31.5
17:05 1019 30.09 849 25.07 20 67.9 26 0 32.1
17:10 1019 30.09 848 25.04 19.5 67.2 26 -0.1 31.8
17:15 1019 30.09 848 25.04 19.3 66.8 27 -0.3 31.5
17:20 1019 30.09 848 25.04 19.5 67.2 26 -0.1 31.8
17:25 1019 30.09 848 25.04 19.8 67.6 26 -0.1 31.8
17:30 1019 30.09 848 25.04 19.8 67.7 26 -0.2 31.7
17:35 1019 30.09 848 25.04 19.8 67.7 26 0.1 32.1
17:40 1019 30.09 848 25.04 19.9 67.9 27 0.7 33.3
17:45 1019 30.09 848 25.04 19.8 67.6 26 -0 32
17:50 1019 30.09 848 25.04 19.5 67.2 27 0.1 32.2
17:55 1019 30.09 848 25.04 19.5 67.1 27 -0 32
18:00 1019 30.09 848 25.04 19.6 67.3 27 0.3 32.5
18:05 1019 30.09 848 25.04 19.7 67.4 27 0.1 32.2
18:10 1019 30.09 848 25.04 19.6 67.4 27 0.1 32.2
18:15 1019 30.09 848 25.04 19.8 67.7 25 -0.5 31.1
18:20 1019 30.09 848 25.04 20.2 68.3 25 -0.3 31.4
18:25 1019 30.09 848 25.04 20.4 68.7 25 -0 32
18:30 1019 30.09 848 25.04 20.4 68.6 25 -0.4 31.3
18:35 1019 30.09 848 25.04 20.3 68.5 25 -0.4 31.3
18:40 1019 30.09 848 25.04 20.3 68.6 25 -0.2 31.6
18:45 1019 30.09 848 25.04 20.3 68.6 25 -0.1 31.8
18:50 1019 30.09 848 25.04 20.4 68.7 25 -0.2 31.7
18:55 1019 30.09 848 25.04 20.4 68.6 25 -0 32
19:00 1019 30.09 848 25.04 20.2 68.4 26 0.3 32.6
19:05 1019 30.09 848 25.04 19.9 67.8 26 0.1 32.3
19:10 1019 30.09 848 25.04 19.7 67.5 27 0.5 32.9
19:15 1019 30.09 848 25.04 19.7 67.4 27 0.4 32.7
19:20 1019 30.09 848 25.04 19.7 67.4 27 0.3 32.5
19:25 1019 30.09 848 25.04 19.7 67.5 29 1.1 34
19:30 1019 30.09 848 25.04 19.5 67.1 29 1.2 34.1
19:35 1019 30.09 848 25.04 19.3 66.8 29 1 33.8
19:40 1019 30.09 848 25.04 19.2 66.6 31 1.7 35.1
19:45 1019 30.09 848 25.04 19.1 66.4 32 2 35.6
19:50 1019 30.09 848 25.04 19 66.1 31 1.7 35.1
19:55 1019 30.09 848 25.04 18.8 65.9 31 1.5 34.7
20:00 1019 30.09 848 25.04 18.6 65.5 32 1.9 35.5
20:05 1019 30.09 848 25.04 18.4 65.2 34 2.2 36
20:10 1019 30.09 848 25.04 18.2 64.7 35 2.7 36.8
20:15 1019 30.09 848 25.04 17.9 64.2 38 3.5 38.2
20:20 1019 30.09 848 25.04 17.5 63.5 41 4.3 39.7
20:25 1019 30.09 848 25.04 17.1 62.7 46 5.5 42
20:30 1019 30.09 848 25.04 16.4 61.6 48 5.4 41.6
20:35 1019 30.09 848 25.04 16.3 61.3 49 5.5 42
20:40 1019 30.09 848 25.04 16 60.8 51 5.9 42.6
20:45 1019 30.09 848 25.04 15.7 60.3 52 5.9 42.6
20:50 1019 30.09 848 25.04 14.9 58.8 52 5.3 41.6
20:55 1019 30.09 848 25.04 14.6 58.2 48 3.8 38.8
21:00 1019 30.09 848 25.04 14.7 58.4 48 3.9 39.1
21:05 1019 30.09 848 25.04 14.6 58.3 48 3.9 39
21:10 1019 30.09 848 25.04 14.5 58.1 50 4.3 39.8
21:15 1019 30.09 848 25.04 14.2 57.6 51 4.4 39.9
21:20 1019 30.09 849 25.07 13.9 57 52 4.3 39.8
21:25 1019 30.09 849 25.07 13.7 56.6 53 4.3 39.7
21:30 1019 30.09 849 25.07 13.5 56.2 54 4.3 39.8
21:35 1019 30.09 849 25.07 13.2 55.8 55 4.4 39.9
21:40 1019 30.09 849 25.07 13 55.5 55 4.2 39.5
21:45 1019 30.09 849 25.07 13.1 55.5 54 4 39.3
21:50 1019 30.09 849 25.07 13.1 55.6 53 3.8 38.8
21:55 1019 30.09 849 25.07 13.3 55.9 52 3.8 38.9
22:00 1019 30.09 849 25.07 13.3 55.9 53 4 39.2
22:05 1019 30.09 849 25.07 13.1 55.5 53 3.7 38.7
22:10 1019 30.09 849 25.07 13.2 55.7 52 3.5 38.2
22:15 1019 30.09 849 25.07 13.3 56 51 3.5 38.4
22:20 1019 30.09 849 25.07 13.3 55.9 52 3.7 38.6
22:25 1019 30.09 849 25.07 13.2 55.8 51 3.4 38.2
22:30 1019 30.09 849 25.07 13.4 56.1 51 3.6 38.5
22:35 1019 30.09 849 25.07 13.2 55.8 52 3.7 38.7
22:40 1019 30.09 849 25.07 13.3 55.9 51 3.5 38.4
22:45 1019 30.09 849 25.07 13.2 55.7 52 3.5 38.3
22:50 1019 30.09 849 25.07 13.3 55.9 51 3.3 37.9
22:55 1019 30.09 849 25.07 13.2 55.8 51 3.4 38.2
23:00 1019 30.09 849 25.07 13 55.4 53 3.7 38.6
23:05 1019 30.09 849 25.07 12.6 54.7 54 3.7 38.7
23:10 1020 30.12 849 25.07 12.3 54.2 56 3.8 38.8
23:15 1020 30.12 849 25.07 12.2 53.9 56 3.7 38.6
23:20 1020 30.12 849 25.07 12.2 53.9 57 3.9 39
23:25 1020 30.12 849 25.07 12.1 53.8 56 3.6 38.5
23:30 1020 30.12 849 25.07 12 53.6 56 3.6 38.4
23:35 1020 30.12 849 25.07 12 53.6 56 3.7 38.6
23:40 1020 30.12 849 25.07 11.9 53.3 56 3.5 38.3
23:45 1020 30.12 849 25.07 12 53.7 56 3.6 38.4
23:50 1020 30.12 849 25.07 12 53.5 56 3.6 38.5
23:55 1020 30.12 849 25.07 12 53.5 55 3.4 38.1
24:00 1020 30.12 849 25.07 12 53.6 56 3.5 38.3